createdAt,value
2019-05-05T00:01:01.846Z,6.50
2019-05-05T00:03:41.431Z,6.40
2019-05-05T00:06:10.874Z,6.40
2019-05-05T00:08:39.805Z,6.40
2019-05-05T00:11:21.073Z,6.40
2019-05-05T00:13:55.198Z,6.40
2019-05-05T00:16:49.075Z,6.40
2019-05-05T00:19:29.757Z,6.40
2019-05-05T00:21:48.943Z,6.40
2019-05-05T00:24:17.850Z,6.40
2019-05-05T00:26:46.768Z,6.40
2019-05-05T00:29:15.587Z,6.40
2019-05-05T00:31:45.404Z,6.40
2019-05-05T00:34:15.320Z,6.40
2019-05-05T00:39:07.782Z,6.40
2019-05-05T00:41:36.767Z,6.40
2019-05-05T00:44:05.734Z,6.40
2019-05-05T00:47:05.952Z,6.40
2019-05-05T00:49:45.608Z,6.40
2019-05-05T00:52:07.050Z,6.30
2019-05-05T00:54:35.873Z,6.30
2019-05-05T00:57:04.838Z,6.30
2019-05-05T00:59:34.750Z,6.30
2019-05-05T01:02:17.437Z,6.30
2019-05-05T01:04:56.584Z,6.30
2019-05-05T01:07:25.479Z,6.20
2019-05-05T01:09:54.494Z,6.20
2019-05-05T01:12:24.336Z,6.20
2019-05-05T01:14:55.298Z,6.20
2019-05-05T01:17:25.297Z,6.10
2019-05-05T01:20:03.131Z,6.10
2019-05-05T01:22:25.163Z,6.10
2019-05-05T01:24:55.397Z,6.10
2019-05-05T01:27:25.505Z,6.00
2019-05-05T01:29:54.777Z,6.00
2019-05-05T01:32:28.112Z,6.00
2019-05-05T01:34:57.029Z,5.90
2019-05-05T01:37:40.377Z,5.90
2019-05-05T01:40:44.978Z,5.90
2019-05-05T01:43:14.600Z,5.90
2019-05-05T01:45:45.335Z,5.90
2019-05-05T01:48:14.453Z,5.80
2019-05-05T01:50:45.196Z,5.80
2019-05-05T01:53:15.196Z,5.90
2019-05-05T01:55:45.233Z,5.80
2019-05-05T01:58:15.378Z,5.90
2019-05-05T02:00:45.243Z,5.80
2019-05-05T02:03:14.803Z,5.80
2019-05-05T02:05:45.250Z,5.80
2019-05-05T02:08:15.306Z,5.80
2019-05-05T02:10:45.306Z,5.80
2019-05-05T02:13:16.114Z,5.80
2019-05-05T02:15:45.200Z,5.80
2019-05-05T02:18:14.902Z,5.80
2019-05-05T02:20:51.357Z,5.80
2019-05-05T02:23:20.427Z,5.80
2019-05-05T02:25:49.406Z,5.80
2019-05-05T02:28:18.394Z,5.80
2019-05-05T02:30:55.111Z,5.80
2019-05-05T02:33:26.112Z,5.80
2019-05-05T02:35:55.789Z,5.80
2019-05-05T02:38:26.153Z,5.80
2019-05-05T02:40:55.968Z,5.80
2019-05-05T02:43:26.064Z,5.80
2019-05-05T02:46:29.087Z,5.80
2019-05-05T02:49:00.637Z,5.80
2019-05-05T02:51:31.479Z,5.90
2019-05-05T02:54:04.436Z,5.90
2019-05-05T02:56:43.629Z,5.90
2019-05-05T02:59:18.343Z,5.90
2019-05-05T03:01:53.929Z,5.90
2019-05-05T03:04:24.559Z,5.90
2019-05-05T03:06:56.254Z,5.90
2019-05-05T03:09:27.067Z,5.90
2019-05-05T03:11:59.142Z,5.90
2019-05-05T03:14:29.922Z,5.90
2019-05-05T03:16:58.969Z,5.90
2019-05-05T03:19:28.044Z,5.90
2019-05-05T03:21:57.233Z,5.90
2019-05-05T03:24:27.246Z,5.80
2019-05-05T03:26:56.745Z,5.90
2019-05-05T03:29:26.542Z,5.90
2019-05-05T03:31:56.605Z,5.90
2019-05-05T03:34:25.778Z,5.90
2019-05-05T03:36:54.871Z,5.90
2019-05-05T03:39:25.946Z,5.90
2019-05-05T03:42:18.247Z,5.90
2019-05-05T03:45:15.972Z,5.90
2019-05-05T03:47:45.377Z,5.90
2019-05-05T03:50:14.578Z,5.90
2019-05-05T03:52:45.149Z,5.90
2019-05-05T03:55:14.134Z,5.90
2019-05-05T03:57:44.622Z,5.90
2019-05-05T04:00:15.699Z,5.90
2019-05-05T04:02:53.843Z,5.90
2019-05-05T04:05:34.037Z,5.90
2019-05-05T04:08:03.920Z,5.90
2019-05-05T04:10:34.082Z,5.90
2019-05-05T04:13:04.664Z,5.90
2019-05-05T04:15:35.215Z,5.90
2019-05-05T04:18:11.736Z,5.90
2019-05-05T04:20:44.188Z,5.90
2019-05-05T04:23:14.116Z,5.90
2019-05-05T04:25:43.950Z,5.90
2019-05-05T04:28:13.596Z,6.00
2019-05-05T04:30:44.485Z,6.00
2019-05-05T04:33:14.306Z,6.00
2019-05-05T04:35:44.441Z,5.90
2019-05-05T04:38:14.027Z,6.00
2019-05-05T04:40:43.619Z,6.00
2019-05-05T04:43:14.359Z,6.00
2019-05-05T04:45:43.671Z,6.00
2019-05-05T04:48:24.068Z,6.00
2019-05-05T04:50:59.075Z,6.00
2019-05-05T04:53:34.719Z,6.00
2019-05-05T04:56:04.316Z,6.00
2019-05-05T04:58:33.642Z,6.10
2019-05-05T05:01:04.542Z,6.10
2019-05-05T05:03:54.485Z,6.10
2019-05-05T05:06:36.826Z,6.10
2019-05-05T05:09:06.661Z,6.10
2019-05-05T05:11:35.549Z,6.20
2019-05-05T05:14:04.470Z,6.20
2019-05-05T05:16:35.602Z,6.20
2019-05-05T05:19:04.360Z,6.20
2019-05-05T05:21:34.219Z,6.20
2019-05-05T05:24:04.067Z,6.30
2019-05-05T05:26:33.609Z,6.30
2019-05-05T05:29:04.533Z,6.40
2019-05-05T05:31:33.760Z,6.40
2019-05-05T05:34:04.357Z,6.40
2019-05-05T05:36:33.871Z,6.50
2019-05-05T05:39:09.479Z,6.50
2019-05-05T05:41:47.701Z,6.50
2019-05-05T05:44:34.621Z,6.60
2019-05-05T05:47:21.509Z,6.60
2019-05-05T05:49:59.598Z,6.60
2019-05-05T05:52:28.402Z,6.70
2019-05-05T05:54:57.248Z,6.70
2019-05-05T05:57:26.066Z,6.70
2019-05-05T05:59:54.982Z,6.80
2019-05-05T06:02:24.269Z,6.80
2019-05-05T06:04:53.951Z,6.80
2019-05-05T06:07:24.542Z,6.80
2019-05-05T06:09:54.148Z,6.90
2019-05-05T06:12:24.573Z,6.90
2019-05-05T06:14:53.746Z,6.90
2019-05-05T06:17:23.789Z,6.90
2019-05-05T06:19:53.489Z,6.90
2019-05-05T06:22:29.262Z,7.00
2019-05-05T06:24:54.108Z,7.00
2019-05-05T06:27:23.640Z,7.10
2019-05-05T06:29:54.268Z,7.20
2019-05-05T06:32:23.849Z,7.30
2019-05-05T06:34:53.445Z,7.40
2019-05-05T06:37:23.825Z,7.40
2019-05-05T06:39:54.971Z,7.30
2019-05-05T06:42:34.348Z,7.30
2019-05-05T06:45:09.903Z,7.30
2019-05-05T06:47:41.787Z,7.20
2019-05-05T06:50:13.955Z,7.20
2019-05-05T06:52:45.165Z,7.20
2019-05-05T06:55:14.125Z,7.20
2019-05-05T06:57:44.423Z,7.20
2019-05-05T07:00:14.037Z,7.30
2019-05-05T07:02:44.487Z,7.30
2019-05-05T07:05:14.322Z,7.40
2019-05-05T07:07:43.634Z,7.40
2019-05-05T07:10:14.108Z,7.50
2019-05-05T07:12:44.055Z,7.50
2019-05-05T07:15:14.557Z,7.60
2019-05-05T07:17:44.255Z,7.60
2019-05-05T07:20:14.248Z,7.70
2019-05-05T07:22:58.329Z,7.70
2019-05-05T07:25:14.206Z,7.80
2019-05-05T07:27:44.233Z,7.80
2019-05-05T07:30:14.631Z,7.90
2019-05-05T07:32:44.293Z,7.90
2019-05-05T07:35:22.197Z,8.00
2019-05-05T07:37:53.857Z,8.00
2019-05-05T07:40:24.126Z,8.00
2019-05-05T07:42:54.023Z,8.00
2019-05-05T07:45:25.767Z,8.10
2019-05-05T07:47:54.456Z,8.10
2019-05-05T07:50:31.156Z,8.20
2019-05-05T07:52:54.725Z,8.20
2019-05-05T07:55:23.930Z,8.20
2019-05-05T07:57:53.797Z,8.30
2019-05-05T08:00:24.053Z,8.30
2019-05-05T08:02:54.446Z,8.40
2019-05-05T08:05:24.593Z,8.40
2019-05-05T08:07:57.726Z,8.50
2019-05-05T08:10:26.654Z,8.50
2019-05-05T08:12:55.486Z,8.60
2019-05-05T08:15:26.150Z,8.70
2019-05-05T08:18:14.119Z,8.70
2019-05-05T08:20:45.876Z,8.80
2019-05-05T08:23:31.814Z,8.90
2019-05-05T08:26:27.095Z,9.00
2019-05-05T08:29:21.197Z,9.10
2019-05-05T08:32:04.221Z,9.10
2019-05-05T08:34:33.986Z,9.20
2019-05-05T08:37:04.359Z,9.30
2019-05-05T08:39:34.463Z,9.50
2019-05-05T08:42:04.373Z,9.50
2019-05-05T08:44:34.302Z,9.60
2019-05-05T08:47:04.500Z,9.70
2019-05-05T08:49:34.724Z,9.70
2019-05-05T08:52:04.198Z,9.80
2019-05-05T08:54:34.424Z,9.90
2019-05-05T08:57:04.347Z,9.90
2019-05-05T08:59:33.823Z,10.00
2019-05-05T09:02:04.573Z,10.10
2019-05-05T09:04:34.092Z,10.20
2019-05-05T09:07:05.051Z,10.20
2019-05-05T09:09:33.858Z,10.30
2019-05-05T09:12:04.586Z,10.30
2019-05-05T09:14:34.579Z,10.40
2019-05-05T09:17:04.409Z,10.40
2019-05-05T09:19:34.451Z,10.50
2019-05-05T09:22:06.762Z,10.50
2019-05-05T09:24:51.034Z,10.50
2019-05-05T09:27:33.904Z,10.50
2019-05-05T09:30:03.925Z,10.50
2019-05-05T09:32:34.403Z,10.50
2019-05-05T09:35:04.773Z,10.50
2019-05-05T09:37:34.065Z,10.60
2019-05-05T09:40:04.538Z,10.60
2019-05-05T09:42:34.235Z,10.60
2019-05-05T09:45:04.761Z,10.60
2019-05-05T09:47:34.481Z,10.60
2019-05-05T09:50:03.955Z,10.60
2019-05-05T09:52:33.772Z,10.60
2019-05-05T09:55:03.871Z,10.60
2019-05-05T09:57:34.394Z,10.60
2019-05-05T10:00:13.995Z,10.60
2019-05-05T10:02:44.164Z,10.60
2019-05-05T10:05:14.507Z,10.60
2019-05-05T10:07:44.045Z,10.60
2019-05-05T10:10:13.976Z,10.70
2019-05-05T10:12:44.587Z,10.70
2019-05-05T10:15:14.054Z,10.70
2019-05-05T10:17:43.694Z,10.80
2019-05-05T10:20:14.502Z,10.80
2019-05-05T10:22:43.902Z,10.90
2019-05-05T10:25:31.722Z,10.90
2019-05-05T10:28:00.565Z,10.90
2019-05-05T10:30:29.651Z,11.00
2019-05-05T10:32:58.738Z,11.10
2019-05-05T10:35:27.632Z,11.10
2019-05-05T10:37:56.537Z,11.20
2019-05-05T10:40:29.435Z,11.20
2019-05-05T10:42:58.758Z,11.30
2019-05-05T10:45:27.743Z,11.30
2019-05-05T10:47:56.684Z,11.40
2019-05-05T10:50:25.695Z,11.40
2019-05-05T10:52:54.867Z,11.40
2019-05-05T10:55:24.090Z,11.40
2019-05-05T10:57:54.414Z,11.50
2019-05-05T11:00:44.388Z,11.50
2019-05-05T11:03:15.066Z,11.60
2019-05-05T11:05:45.276Z,11.70
2019-05-05T11:08:14.778Z,11.70
2019-05-05T11:10:45.046Z,11.80
2019-05-05T11:13:14.472Z,11.80
2019-05-05T11:15:44.373Z,11.80
2019-05-05T11:18:14.784Z,11.90
2019-05-05T11:20:44.771Z,12.00
2019-05-05T11:23:15.240Z,12.00
2019-05-05T11:25:44.709Z,12.10
2019-05-05T11:28:14.274Z,12.10
2019-05-05T11:30:44.892Z,12.10
2019-05-05T11:33:43.711Z,12.20
2019-05-05T11:36:34.842Z,12.20
2019-05-05T11:39:05.890Z,12.30
2019-05-05T11:41:34.869Z,12.40
2019-05-05T11:44:04.298Z,12.40
2019-05-05T11:46:33.920Z,12.50
2019-05-05T11:49:04.870Z,12.60
2019-05-05T11:51:34.170Z,12.70
2019-05-05T11:54:04.656Z,12.70
2019-05-05T11:56:34.093Z,12.80
2019-05-05T11:59:03.961Z,12.90
2019-05-05T12:01:33.289Z,12.90
2019-05-05T12:04:04.166Z,13.00
2019-05-05T12:06:34.012Z,13.00
2019-05-05T12:09:08.021Z,13.10
2019-05-05T12:11:36.850Z,13.20
2019-05-05T12:14:07.847Z,13.30
2019-05-05T12:16:36.734Z,13.40
2019-05-05T12:19:10.005Z,13.40
2019-05-05T12:21:38.866Z,13.50
2019-05-05T12:24:16.610Z,13.60
2019-05-05T12:26:54.275Z,13.70
2019-05-05T12:29:26.579Z,13.70
2019-05-05T12:31:55.679Z,13.80
2019-05-05T12:34:24.490Z,13.90
2019-05-05T12:36:54.124Z,13.90
2019-05-05T12:39:23.124Z,14.00
2019-05-05T12:41:54.103Z,14.10
2019-05-05T12:44:41.761Z,14.10
2019-05-05T12:47:25.665Z,14.20
2019-05-05T12:49:54.615Z,14.30
2019-05-05T12:52:23.505Z,14.40
2019-05-05T12:54:54.495Z,14.40
2019-05-05T12:57:24.094Z,14.50
2019-05-05T12:59:53.755Z,14.50
2019-05-05T13:02:23.523Z,14.50
2019-05-05T13:04:53.476Z,14.60
2019-05-05T13:07:24.301Z,14.70
2019-05-05T13:09:54.515Z,14.70
2019-05-05T13:12:24.051Z,14.70
2019-05-05T13:14:54.476Z,14.80
2019-05-05T13:17:24.486Z,14.80
2019-05-05T13:20:05.515Z,14.80
2019-05-05T13:22:54.114Z,14.70
2019-05-05T13:25:55.348Z,14.60
2019-05-05T13:28:15.832Z,14.50
2019-05-05T13:30:44.827Z,14.50
2019-05-05T13:33:14.135Z,14.50
2019-05-05T13:35:43.321Z,14.40
2019-05-05T13:38:14.454Z,14.30
2019-05-05T13:40:43.877Z,14.20
2019-05-05T13:43:14.446Z,14.20
2019-05-05T13:46:01.536Z,14.20
2019-05-05T13:48:30.422Z,14.10
2019-05-05T13:51:04.140Z,14.10
2019-05-05T13:53:34.277Z,14.00
2019-05-05T13:56:11.937Z,14.00
2019-05-05T13:58:34.338Z,14.00
2019-05-05T14:01:03.843Z,14.00
2019-05-05T14:03:34.194Z,14.00
2019-05-05T14:06:04.732Z,13.90
2019-05-05T14:08:36.269Z,13.90
2019-05-05T14:11:04.504Z,14.00
2019-05-05T14:13:34.208Z,14.00
2019-05-05T14:16:03.961Z,14.00
2019-05-05T14:18:33.214Z,14.00
2019-05-05T14:21:02.140Z,14.10
2019-05-05T14:23:34.555Z,14.10
2019-05-05T14:26:03.846Z,14.10
2019-05-05T14:28:34.017Z,14.30
2019-05-05T14:31:14.206Z,14.30
2019-05-05T14:33:54.220Z,14.30
2019-05-05T14:36:30.716Z,14.40
2019-05-05T14:38:59.801Z,14.40
2019-05-05T14:41:28.750Z,14.40
2019-05-05T14:43:57.789Z,14.40
2019-05-05T14:46:26.695Z,14.40
2019-05-05T14:48:55.623Z,14.40
2019-05-05T14:51:24.660Z,14.40
2019-05-05T14:53:54.270Z,14.30
2019-05-05T14:56:35.372Z,14.30
2019-05-05T14:58:54.413Z,14.40
2019-05-05T15:01:24.749Z,14.40
2019-05-05T15:03:53.926Z,14.40
2019-05-05T15:06:35.434Z,14.50
2019-05-05T15:09:28.977Z,14.50
2019-05-05T15:12:29.279Z,14.60
2019-05-05T15:14:58.354Z,14.70
2019-05-05T15:17:27.365Z,14.80
2019-05-05T15:19:56.469Z,14.90
2019-05-05T15:22:25.421Z,14.90
2019-05-05T15:24:54.237Z,15.00
2019-05-05T15:27:24.160Z,15.10
2019-05-05T15:29:54.262Z,15.20
2019-05-05T15:32:24.190Z,15.30
2019-05-05T15:34:54.520Z,15.40
2019-05-05T15:37:24.090Z,15.50
2019-05-05T15:39:53.588Z,15.60
2019-05-05T15:42:22.813Z,15.60
2019-05-05T15:44:51.722Z,15.80
2019-05-05T15:47:20.674Z,15.80
2019-05-05T15:49:49.677Z,15.90
2019-05-05T15:52:20.156Z,16.00
2019-05-05T15:54:49.225Z,16.10
2019-05-05T15:57:18.354Z,16.20
2019-05-05T15:59:47.574Z,16.30
2019-05-05T16:02:16.659Z,16.30
2019-05-05T16:04:45.592Z,16.30
2019-05-05T16:07:14.520Z,16.40
2019-05-05T16:09:44.425Z,16.40
2019-05-05T16:12:14.423Z,16.50
2019-05-05T16:15:01.468Z,16.40
2019-05-05T16:17:45.641Z,16.30
2019-05-05T16:20:19.034Z,16.40
2019-05-05T16:23:14.345Z,16.40
2019-05-05T16:25:46.357Z,16.50
2019-05-05T16:28:14.574Z,16.50
2019-05-05T16:30:44.513Z,16.50
2019-05-05T16:33:15.717Z,16.60
2019-05-05T16:35:44.581Z,16.60
2019-05-05T16:38:14.939Z,16.60
2019-05-05T16:40:44.592Z,16.60
2019-05-05T16:43:16.564Z,16.60
2019-05-05T16:45:44.671Z,16.60
2019-05-05T16:48:14.010Z,16.50
2019-05-05T16:50:44.082Z,16.40
2019-05-05T16:53:34.288Z,16.30
2019-05-05T16:56:04.531Z,16.20
2019-05-05T16:58:33.819Z,16.00
2019-05-05T17:01:03.836Z,16.10
2019-05-05T17:03:32.883Z,16.00
2019-05-05T17:06:03.609Z,16.00
2019-05-05T17:08:33.807Z,15.80
2019-05-05T17:11:03.135Z,15.70
2019-05-05T17:13:51.140Z,15.70
2019-05-05T17:16:30.773Z,15.60
2019-05-05T17:19:05.475Z,15.50
2019-05-05T17:21:44.556Z,15.30
2019-05-05T17:24:14.126Z,15.30
2019-05-05T17:26:43.892Z,15.20
2019-05-05T17:29:14.603Z,15.10
2019-05-05T17:31:44.371Z,14.90
2019-05-05T17:34:13.710Z,14.70
2019-05-05T17:36:45.116Z,14.60
2019-05-05T17:39:13.718Z,14.60
2019-05-05T17:42:00.546Z,14.50
2019-05-05T17:44:54.697Z,14.40
2019-05-05T17:47:34.284Z,14.30
2019-05-05T17:50:10.012Z,14.20
2019-05-05T17:52:55.290Z,14.10
2019-05-05T17:55:33.663Z,14.10
2019-05-05T17:58:02.885Z,14.00
2019-05-05T18:00:34.427Z,13.90
2019-05-05T18:03:04.412Z,13.80
2019-05-05T18:05:51.655Z,13.70
2019-05-05T18:08:39.333Z,13.60
2019-05-05T18:11:14.509Z,13.50
2019-05-05T18:13:48.020Z,13.40
2019-05-05T18:16:18.725Z,13.30
2019-05-05T18:18:47.717Z,13.20
2019-05-05T18:21:16.770Z,13.10
2019-05-05T18:23:45.705Z,12.90
2019-05-05T18:26:14.532Z,12.80
2019-05-05T18:28:44.761Z,12.70
2019-05-05T18:31:14.206Z,12.70
2019-05-05T18:33:43.135Z,12.70
2019-05-05T18:36:14.042Z,12.60
2019-05-05T18:38:44.492Z,12.50
2019-05-05T18:41:23.665Z,12.40
2019-05-05T18:44:16.766Z,12.40
2019-05-05T18:46:47.357Z,12.40
2019-05-05T18:49:16.312Z,12.30
2019-05-05T18:51:45.226Z,12.20
2019-05-05T18:54:14.222Z,12.10
2019-05-05T18:56:44.020Z,12.00
2019-05-05T18:59:13.424Z,12.00
2019-05-05T19:01:55.069Z,11.90
2019-05-05T19:04:41.707Z,11.90
2019-05-05T19:07:38.771Z,11.90
2019-05-05T19:10:07.966Z,11.80
2019-05-05T19:12:36.797Z,11.70
2019-05-05T19:15:06.727Z,11.70
2019-05-05T19:17:35.664Z,11.60
2019-05-05T19:20:10.750Z,11.50
2019-05-05T19:22:39.617Z,11.40
2019-05-05T19:25:17.773Z,11.30
2019-05-05T19:27:47.208Z,11.20
2019-05-05T19:30:17.254Z,11.00
2019-05-05T19:32:46.222Z,10.90
2019-05-05T19:35:15.235Z,10.70
2019-05-05T19:37:44.611Z,10.60
2019-05-05T19:40:14.214Z,10.60
2019-05-05T19:42:45.993Z,10.50
2019-05-05T19:45:14.915Z,10.50
2019-05-05T19:47:43.996Z,10.50
2019-05-05T19:50:35.945Z,10.60
2019-05-05T19:53:06.722Z,10.60
2019-05-05T19:55:36.443Z,10.60
2019-05-05T19:58:05.758Z,10.50
2019-05-05T20:00:36.798Z,10.50
2019-05-05T20:03:05.450Z,10.50
2019-05-05T20:05:34.551Z,10.40
2019-05-05T20:08:06.727Z,10.40
2019-05-05T20:10:35.582Z,10.30
2019-05-05T20:13:05.159Z,10.20
2019-05-05T20:15:40.315Z,10.20
2019-05-05T20:18:09.362Z,10.20
2019-05-05T20:20:38.260Z,10.10
2019-05-05T20:23:07.157Z,10.10
2019-05-05T20:25:40.960Z,10.00
2019-05-05T20:28:15.593Z,9.90
2019-05-05T20:30:54.040Z,9.90
2019-05-05T20:33:44.235Z,9.80
2019-05-05T20:36:19.132Z,9.80
2019-05-05T20:38:50.146Z,9.70
2019-05-05T20:41:20.455Z,9.70
2019-05-05T20:43:49.634Z,9.60
2019-05-05T20:46:18.769Z,9.60
2019-05-05T20:48:47.639Z,9.50
2019-05-05T20:51:16.959Z,9.50
2019-05-05T20:53:48.879Z,9.50
2019-05-05T20:56:16.589Z,9.40
2019-05-05T20:58:45.570Z,9.40
2019-05-05T21:01:14.392Z,9.30
2019-05-05T21:03:43.324Z,9.30
2019-05-05T21:06:13.898Z,9.30
2019-05-05T21:08:43.983Z,9.30
2019-05-05T21:11:14.103Z,9.20
2019-05-05T21:13:45.111Z,9.20
2019-05-05T21:16:14.318Z,9.10
2019-05-05T21:18:43.294Z,9.10
2019-05-05T21:21:17.162Z,9.10
2019-05-05T21:23:50.201Z,9.10
2019-05-05T21:26:24.137Z,9.00
2019-05-05T21:28:53.829Z,9.00
2019-05-05T21:31:23.974Z,8.90
2019-05-05T21:33:54.883Z,8.90
2019-05-05T21:36:24.370Z,8.80
2019-05-05T21:38:54.819Z,8.80
2019-05-05T21:41:24.543Z,8.80
2019-05-05T21:43:54.177Z,8.70
2019-05-05T21:46:24.021Z,8.70
2019-05-05T21:48:54.345Z,8.70
2019-05-05T21:51:36.223Z,8.60
2019-05-05T21:54:23.603Z,8.60
2019-05-05T21:57:04.359Z,8.50
2019-05-05T21:59:33.754Z,8.50
2019-05-05T22:02:03.932Z,8.40
2019-05-05T22:04:33.802Z,8.30
2019-05-05T22:07:03.749Z,8.30
2019-05-05T22:09:32.911Z,8.20
2019-05-05T22:12:04.053Z,8.20
2019-05-05T22:14:34.125Z,8.20
2019-05-05T22:17:04.102Z,8.20
2019-05-05T22:19:35.866Z,8.20
2019-05-05T22:22:07.163Z,8.20
2019-05-05T22:24:36.067Z,8.30
2019-05-05T22:27:05.064Z,8.20
2019-05-05T22:29:34.299Z,8.30
2019-05-05T22:32:06.043Z,8.30
2019-05-05T22:34:34.134Z,8.20
2019-05-05T22:37:05.400Z,8.20
2019-05-05T22:39:33.863Z,8.20
2019-05-05T22:42:04.738Z,8.20
2019-05-05T22:44:34.039Z,8.10
2019-05-05T22:47:04.685Z,8.10
2019-05-05T22:49:34.034Z,8.10
2019-05-05T22:52:03.821Z,8.10
2019-05-05T22:54:33.641Z,8.00
2019-05-05T22:57:04.639Z,8.00
2019-05-05T22:59:33.723Z,8.00
2019-05-05T23:02:03.994Z,8.00
2019-05-05T23:04:49.099Z,7.90
2019-05-05T23:07:30.018Z,8.00
2019-05-05T23:09:58.946Z,7.90
2019-05-05T23:12:27.842Z,7.90
2019-05-05T23:14:56.825Z,7.80
2019-05-05T23:17:44.951Z,7.80
2019-05-05T23:20:41.247Z,7.80
2019-05-05T23:23:34.174Z,7.70
2019-05-05T23:26:04.216Z,7.70
2019-05-05T23:28:33.896Z,7.70
2019-05-05T23:31:02.989Z,7.60
2019-05-05T23:33:31.810Z,7.60
2019-05-05T23:36:00.634Z,7.60
2019-05-05T23:38:29.558Z,7.50
2019-05-05T23:40:58.497Z,7.50
2019-05-05T23:43:27.474Z,7.40
2019-05-05T23:45:56.522Z,7.40
2019-05-05T23:48:25.501Z,7.40
2019-05-05T23:50:54.391Z,7.30
2019-05-05T23:53:24.874Z,7.30
2019-05-05T23:55:54.626Z,7.30
2019-05-05T23:58:24.101Z,7.20
